Time;durP1;ratioP1;P1;durP2;ratioP2;P2;SDS_P1;SDS_P2;PMS_P1;PMS_P2;Temp;Humidity;BMP_temperature;BMP_pressure;BME280_temperature;BME280_humidity;BME280_pressure;Samples;Min_cycle;Max_cycle;Signal;HPM_P1;HPM_P2
2023/10/27 00:49:11;;;;;;;28.42;21.23;;;12.40;99.90;;;;;;5000966;24;20056;-91
2023/10/27 00:51:38;;;;;;;34.58;23.23;;;12.40;99.90;;;;;;4752900;30;20111;-91
2023/10/27 00:54:08;;;;;;;30.92;22.38;;;12.40;99.90;;;;;;4753448;30;20044;-92
2023/10/27 00:56:35;;;;;;;34.30;23.90;;;12.40;99.90;;;;;;4738955;30;20040;-90
2023/10/27 00:59:02;;;;;;;32.22;24.27;;;12.40;99.90;;;;;;4754760;30;20028;-92
2023/10/27 01:01:28;;;;;;;33.45;23.65;;;12.40;99.90;;;;;;4738771;30;20063;-92
2023/10/27 01:03:55;;;;;;;32.85;23.13;;;12.40;99.90;;;;;;4753206;30;20070;-92
2023/10/27 01:06:22;;;;;;;33.40;22.63;;;12.40;99.90;;;;;;4753621;30;20497;-92
2023/10/27 01:08:48;;;;;;;30.65;22.23;;;12.40;99.90;;;;;;4753493;30;20032;-91
2023/10/27 01:11:16;;;;;;;34.38;23.92;;;12.40;99.90;;;;;;4753253;30;20043;-90
2023/10/27 01:13:41;;;;;;;32.58;23.48;;;12.40;99.90;;;;;;4738816;30;20028;-91
2023/10/27 01:16:07;;;;;;;34.40;23.27;;;12.50;99.90;;;;;;4753262;30;20032;-91
2023/10/27 01:18:33;;;;;;;33.72;24.00;;;12.50;99.90;;;;;;4752941;30;20051;-90
2023/10/27 01:20:59;;;;;;;35.25;24.27;;;12.50;99.90;;;;;;4753638;30;20028;-92
2023/10/27 01:23:25;;;;;;;34.42;24.50;;;12.50;99.90;;;;;;4738595;30;20126;-92
2023/10/27 01:25:51;;;;;;;33.38;23.38;;;12.50;99.90;;;;;;4754233;30;20040;-94
2023/10/27 01:28:17;;;;;;;32.22;24.17;;;12.60;99.90;;;;;;4753222;30;20079;-93
2023/10/27 01:30:43;;;;;;;35.97;25.50;;;12.60;99.90;;;;;;4752832;30;20069;-92
2023/10/27 01:33:09;;;;;;;32.10;23.45;;;12.50;99.90;;;;;;4738158;30;20078;-90
2023/10/27 01:35:35;;;;;;;32.30;23.65;;;12.60;99.90;;;;;;4752984;30;20075;-93
2023/10/27 01:38:01;;;;;;;37.42;25.48;;;12.60;99.90;;;;;;4753050;30;20062;-91
2023/10/27 01:40:27;;;;;;;34.75;23.15;;;12.60;99.90;;;;;;4753609;30;20032;-93
2023/10/27 01:42:53;;;;;;;33.95;24.30;;;12.60;99.90;;;;;;4753026;30;20028;-92
2023/10/27 01:45:19;;;;;;;34.30;23.83;;;12.60;99.90;;;;;;4753139;30;20044;-94
2023/10/27 01:47:44;;;;;;;32.63;22.98;;;12.60;99.90;;;;;;4758487;30;20110;-91
2023/10/27 01:50:10;;;;;;;33.33;23.55;;;12.60;99.90;;;;;;4753862;30;20040;-91
2023/10/27 01:52:36;;;;;;;28.88;22.08;;;12.60;99.90;;;;;;4765219;30;20024;-91
2023/10/27 01:55:02;;;;;;;30.17;21.65;;;12.60;99.90;;;;;;4760103;30;20056;-92
2023/10/27 01:57:27;;;;;;;31.77;23.42;;;12.60;99.90;;;;;;4775471;30;20020;-92
2023/10/27 01:59:53;;;;;;;31.92;23.23;;;12.70;99.90;;;;;;4775575;30;20028;-93
2023/10/27 02:02:20;;;;;;;27.88;21.13;;;12.70;99.90;;;;;;4750987;30;20083;-91
2023/10/27 02:04:45;;;;;;;31.75;21.58;;;12.70;99.90;;;;;;4754477;30;20037;-91
2023/10/27 02:07:12;;;;;;;33.95;24.10;;;12.70;99.90;;;;;;4753035;30;20482;-91
2023/10/27 02:09:39;;;;;;;31.52;22.73;;;12.70;99.90;;;;;;4738281;30;20062;-91
2023/10/27 02:12:07;;;;;;;31.52;22.67;;;12.60;99.90;;;;;;4752613;30;20119;-91
2023/10/27 02:14:33;;;;;;;33.05;24.08;;;12.70;99.90;;;;;;4752639;30;20032;-91
2023/10/27 02:16:59;;;;;;;33.40;23.88;;;12.60;99.90;;;;;;4737782;30;20081;-90
2023/10/27 02:19:25;;;;;;;36.63;23.88;;;12.70;99.90;;;;;;4752599;30;20066;-90
2023/10/27 02:21:51;;;;;;;34.25;24.25;;;12.60;99.90;;;;;;4738047;30;20031;-90
2023/10/27 02:24:16;;;;;;;31.30;23.20;;;12.70;99.90;;;;;;4752351;30;20135;-88
2023/10/27 02:26:42;;;;;;;35.55;24.02;;;12.60;99.90;;;;;;4752469;30;20047;-89
2023/10/27 02:29:07;;;;;;;31.83;23.08;;;12.60;99.90;;;;;;4752488;30;20036;-88
2023/10/27 02:31:33;;;;;;;33.00;23.95;;;12.60;99.90;;;;;;4749153;30;20071;-90
2023/10/27 02:33:59;;;;;;;33.30;22.52;;;12.60;99.90;;;;;;4752525;30;20024;-90
2023/10/27 02:36:25;;;;;;;31.33;22.05;;;12.60;99.90;;;;;;4744363;30;20502;-91
2023/10/27 02:38:51;;;;;;;30.05;22.08;;;12.60;99.90;;;;;;4743663;30;20044;-91
2023/10/27 02:41:16;;;;;;;31.27;22.17;;;12.70;99.90;;;;;;4739754;30;20028;-90
2023/10/27 02:43:42;;;;;;;31.15;22.27;;;12.70;99.90;;;;;;4766200;30;20397;-90
2023/10/27 02:46:12;;;;;;;31.65;22.85;;;12.70;99.90;;;;;;4722549;30;20051;-89
2023/10/27 02:48:38;;;;;;;32.45;22.85;;;12.70;99.90;;;;;;4731218;30;20056;-91
2023/10/27 02:51:04;;;;;;;31.02;22.23;;;12.70;99.90;;;;;;4757117;30;20430;-90
2023/10/27 02:53:29;;;;;;;29.27;20.67;;;12.70;99.90;;;;;;4733935;30;20035;-90
2023/10/27 02:55:56;;;;;;;28.85;21.88;;;12.70;99.90;;;;;;4742176;30;20487;-90
2023/10/27 02:58:22;;;;;;;28.77;21.02;;;12.70;99.90;;;;;;4755453;30;20037;-91
2023/10/27 03:00:48;;;;;;;30.48;21.55;;;12.70;99.90;;;;;;4740449;30;20378;-90
2023/10/27 03:03:16;;;;;;;28.05;20.88;;;12.70;99.90;;;;;;4755259;30;20063;-90
2023/10/27 03:05:42;;;;;;;29.38;21.20;;;12.70;99.90;;;;;;4740278;30;20040;-90
2023/10/27 03:08:07;;;;;;;28.58;21.17;;;12.70;99.90;;;;;;4755255;30;20047;-89
2023/10/27 03:10:33;;;;;;;29.23;21.63;;;12.70;99.90;;;;;;4754999;30;20043;-90
2023/10/27 03:12:58;;;;;;;29.13;21.38;;;12.70;99.90;;;;;;4765700;30;20035;-90
2023/10/27 03:15:24;;;;;;;28.75;21.27;;;12.70;99.90;;;;;;4742162;30;20047;-90
2023/10/27 03:17:50;;;;;;;29.27;21.10;;;12.70;99.90;;;;;;4754944;30;20056;-90
2023/10/27 03:20:15;;;;;;;31.88;21.40;;;12.80;99.90;;;;;;4755084;30;20039;-89
2023/10/27 03:22:41;;;;;;;30.27;22.10;;;12.80;99.90;;;;;;4759192;30;20473;-90
2023/10/27 03:25:07;;;;;;;29.80;22.00;;;12.80;99.90;;;;;;4739342;30;20060;-91
2023/10/27 03:27:32;;;;;;;31.13;22.80;;;12.70;99.90;;;;;;4759582;30;20036;-91
2023/10/27 03:29:59;;;;;;;33.40;22.05;;;12.70;99.90;;;;;;4763543;30;20059;-90
2023/10/27 03:32:24;;;;;;;33.55;23.27;;;12.80;99.90;;;;;;4777696;30;20020;-90
2023/10/27 03:34:50;;;;;;;28.92;21.40;;;12.80;99.90;;;;;;4776993;30;20013;-91
2023/10/27 03:37:16;;;;;;;30.95;23.10;;;12.80;99.90;;;;;;4777361;30;20063;-90
2023/10/27 03:39:42;;;;;;;29.20;21.25;;;12.70;99.90;;;;;;4776314;30;20020;-91
2023/10/27 03:42:08;;;;;;;28.55;21.00;;;12.70;99.90;;;;;;4763868;30;20451;-91
2023/10/27 03:44:35;;;;;;;29.42;21.08;;;12.70;99.90;;;;;;4758043;30;20071;-91
2023/10/27 03:47:01;;;;;;;29.60;21.20;;;12.70;99.90;;;;;;4768741;30;20039;-92
2023/10/27 03:49:29;;;;;;;26.80;20.27;;;12.70;99.90;;;;;;4755669;30;20060;-90
2023/10/27 03:51:56;;;;;;;25.92;19.05;;;12.70;99.90;;;;;;4743924;30;20483;-91
2023/10/27 03:54:21;;;;;;;25.98;19.45;;;12.70;99.90;;;;;;4771450;30;20173;-91
2023/10/27 03:56:48;;;;;;;28.90;20.67;;;12.70;99.90;;;;;;4756967;30;20062;-91
2023/10/27 03:59:14;;;;;;;26.95;20.13;;;12.70;99.90;;;;;;4742989;30;20053;-92
2023/10/27 04:01:42;;;;;;;27.20;19.83;;;12.70;99.90;;;;;;4742239;30;20544;-91
2023/10/27 04:04:08;;;;;;;25.88;19.23;;;12.70;99.90;;;;;;4746716;30;20051;-91
2023/10/27 04:06:33;;;;;;;25.70;18.52;;;12.70;99.90;;;;;;4737706;30;20028;-91
2023/10/27 04:08:59;;;;;;;24.65;19.17;;;12.70;99.90;;;;;;4746076;30;20059;-91
2023/10/27 04:11:25;;;;;;;23.65;17.23;;;12.60;99.90;;;;;;4736572;30;20036;-92
2023/10/27 04:13:50;;;;;;;23.88;17.70;;;12.70;99.90;;;;;;4737250;30;20485;-90
2023/10/27 04:16:17;;;;;;;22.88;17.73;;;12.70;99.90;;;;;;4737056;30;20469;-92
2023/10/27 04:18:44;;;;;;;22.10;16.27;;;12.70;99.90;;;;;;4724444;30;20138;-90
2023/10/27 04:21:10;;;;;;;21.45;16.63;;;12.60;99.90;;;;;;4753903;30;20485;-90
2023/10/27 04:23:36;;;;;;;23.25;16.77;;;12.70;99.90;;;;;;4725008;30;20155;-92
2023/10/27 04:26:02;;;;;;;23.77;16.63;;;12.70;99.90;;;;;;4759440;30;20508;-91
2023/10/27 04:28:27;;;;;;;21.42;16.35;;;12.70;99.90;;;;;;4753750;30;20036;-91
2023/10/27 04:30:53;;;;;;;21.52;16.30;;;12.70;99.90;;;;;;4753294;30;20048;-91
2023/10/27 04:33:21;;;;;;;25.30;16.67;;;12.60;99.90;;;;;;4724434;30;20041;-91
2023/10/27 04:35:48;;;;;;;21.13;15.68;;;12.60;99.90;;;;;;4738564;30;20053;-90
2023/10/27 04:38:14;;;;;;;23.30;17.35;;;12.70;99.90;;;;;;4724432;30;20094;-91
2023/10/27 04:40:40;;;;;;;20.27;15.73;;;12.60;99.90;;;;;;4742504;30;20044;-92
2023/10/27 04:43:05;;;;;;;20.13;15.02;;;12.60;99.90;;;;;;4748664;30;20389;-92
2023/10/27 04:45:31;;;;;;;21.27;15.45;;;12.60;99.90;;;;;;4735961;30;20049;-92
2023/10/27 04:47:57;;;;;;;18.98;14.48;;;12.60;99.90;;;;;;4769771;30;20039;-90
2023/10/27 04:50:23;;;;;;;17.50;13.60;;;12.60;99.90;;;;;;4756385;30;20469;-91
2023/10/27 04:52:48;;;;;;;17.35;12.68;;;12.60;99.90;;;;;;4741763;30;20042;-90
2023/10/27 04:55:14;;;;;;;18.27;13.25;;;12.60;99.90;;;;;;4741825;30;20040;-91
2023/10/27 04:57:41;;;;;;;17.00;13.30;;;12.70;99.90;;;;;;4743150;30;20044;-89
2023/10/27 05:00:10;;;;;;;16.48;12.30;;;12.70;99.90;;;;;;4738964;30;20461;-91
2023/10/27 05:02:35;;;;;;;16.33;12.50;;;12.70;99.90;;;;;;4753410;30;20465;-90
2023/10/27 05:05:02;;;;;;;16.33;12.57;;;12.70;99.90;;;;;;4756015;30;20077;-92
2023/10/27 05:07:28;;;;;;;16.75;13.05;;;12.70;99.90;;;;;;4770012;30;20504;-90
2023/10/27 05:09:53;;;;;;;16.25;12.45;;;12.70;99.90;;;;;;4753064;30;20033;-90
2023/10/27 05:12:19;;;;;;;14.82;11.98;;;12.70;99.90;;;;;;4775400;30;20062;-90
2023/10/27 05:14:45;;;;;;;13.20;11.32;;;12.70;99.90;;;;;;4755333;30;20040;-91
2023/10/27 05:17:11;;;;;;;14.70;11.50;;;12.70;99.90;;;;;;4728052;30;20485;-89
2023/10/27 05:19:36;;;;;;;13.07;10.63;;;12.70;99.90;;;;;;4754083;30;20090;-91
2023/10/27 05:22:05;;;;;;;14.75;11.52;;;12.70;99.90;;;;;;4725599;30;20093;-90
2023/10/27 05:24:32;;;;;;;14.50;10.82;;;12.70;99.90;;;;;;4767723;30;20503;-90
2023/10/27 05:26:58;;;;;;;14.20;11.18;;;12.70;99.90;;;;;;4752861;30;20040;-91
2023/10/27 05:29:24;;;;;;;13.70;10.60;;;12.60;99.90;;;;;;4738554;30;20392;-90
2023/10/27 05:31:50;;;;;;;13.20;10.90;;;12.60;99.90;;;;;;4760064;30;20032;-88
2023/10/27 05:34:16;;;;;;;12.35;10.15;;;12.60;99.90;;;;;;4753722;30;20036;-88
2023/10/27 05:36:41;;;;;;;10.70;9.25;;;12.60;99.90;;;;;;4760413;30;20477;-86
2023/10/27 05:39:07;;;;;;;10.88;9.55;;;12.60;99.90;;;;;;4741276;30;20051;-87
2023/10/27 05:41:33;;;;;;;10.05;8.95;;;12.60;99.90;;;;;;4752305;30;20048;-89
2023/10/27 05:43:58;;;;;;;9.63;8.18;;;12.60;99.90;;;;;;4742497;30;20032;-89
2023/10/27 05:46:24;;;;;;;9.82;8.32;;;12.70;99.90;;;;;;4742099;30;20115;-89
2023/10/27 05:48:50;;;;;;;10.43;8.70;;;12.60;99.90;;;;;;4759425;30;20086;-90
2023/10/27 05:51:15;;;;;;;10.63;8.73;;;12.70;99.90;;;;;;4754600;30;20028;-89
2023/10/27 05:53:41;;;;;;;11.38;8.77;;;12.70;99.90;;;;;;4752901;30;20040;-89
2023/10/27 05:56:07;;;;;;;10.20;8.45;;;12.70;99.90;;;;;;4753227;30;20040;-91
2023/10/27 05:58:33;;;;;;;8.82;7.47;;;12.70;99.90;;;;;;4724666;30;20040;-90
2023/10/27 06:01:03;;;;;;;9.65;7.75;;;12.70;99.90;;;;;;4747547;30;20029;-90
2023/10/27 06:03:29;;;;;;;8.85;7.93;;;12.70;99.90;;;;;;4728885;30;20032;-91
2023/10/27 06:05:54;;;;;;;9.27;8.27;;;12.70;99.90;;;;;;4734534;30;20099;-91
2023/10/27 06:08:20;;;;;;;9.45;8.23;;;12.70;99.90;;;;;;4734650;30;20090;-90
2023/10/27 06:10:48;;;;;;;9.43;8.32;;;12.70;99.90;;;;;;4751868;30;20108;-91
2023/10/27 06:13:14;;;;;;;9.55;8.07;;;12.80;99.90;;;;;;4738238;30;20036;-93
2023/10/27 06:15:41;;;;;;;10.57;8.60;;;12.70;99.90;;;;;;4753369;30;20069;-90
2023/10/27 06:18:06;;;;;;;10.40;8.35;;;12.70;99.90;;;;;;4753624;30;20063;-92
2023/10/27 06:20:32;;;;;;;9.35;8.25;;;12.70;99.90;;;;;;4741469;30;20094;-90
2023/10/27 06:22:58;;;;;;;9.80;8.40;;;12.70;99.90;;;;;;4744841;30;20028;-91
2023/10/27 06:25:25;;;;;;;8.65;7.72;;;12.70;99.90;;;;;;4743961;30;20036;-93
2023/10/27 06:27:52;;;;;;;8.80;7.78;;;12.70;99.90;;;;;;4756865;30;20033;-90
2023/10/27 06:30:20;;;;;;;11.38;7.90;;;12.70;99.90;;;;;;4754501;30;20036;-90
2023/10/27 06:32:49;;;;;;;10.18;8.60;;;12.70;99.90;;;;;;4774723;30;20047;-91
2023/10/27 06:35:15;;;;;;;8.80;7.70;;;12.70;99.90;;;;;;4753437;30;20043;-90
2023/10/27 06:37:41;;;;;;;9.60;7.82;;;12.70;99.90;;;;;;4765168;30;20032;-90
2023/10/27 06:40:10;;;;;;;9.35;7.53;;;12.70;99.90;;;;;;4756208;30;20488;-90
2023/10/27 06:42:36;;;;;;;10.10;8.38;;;12.70;99.90;;;;;;4742585;30;20056;-90
2023/10/27 06:45:03;;;;;;;9.13;7.45;;;12.60;99.90;;;;;;4760978;30;20062;-91
2023/10/27 06:47:29;;;;;;;8.82;7.30;;;12.60;99.90;;;;;;4790806;29;20064;-89
2023/10/27 06:49:55;;;;;;;9.23;7.30;;;12.60;99.90;;;;;;4780713;30;20039;-87
2023/10/27 06:52:21;;;;;;;8.73;6.95;;;12.60;99.90;;;;;;4767781;30;20029;-90
2023/10/27 06:54:47;;;;;;;8.90;7.50;;;12.60;99.90;;;;;;4776156;30;20062;-89
2023/10/27 06:57:12;;;;;;;8.98;6.93;;;12.60;99.90;;;;;;4727475;30;20044;-89
2023/10/27 06:59:40;;;;;;;8.60;7.35;;;12.60;99.90;;;;;;4764595;30;20028;-91
2023/10/27 07:02:06;;;;;;;8.40;6.90;;;12.60;99.90;;;;;;4755745;30;20035;-89
2023/10/27 07:04:32;;;;;;;8.13;7.10;;;12.60;99.90;;;;;;4740610;30;20036;-92
2023/10/27 07:06:58;;;;;;;8.32;7.13;;;12.60;99.90;;;;;;4765894;30;20028;-90
2023/10/27 07:09:23;;;;;;;8.65;7.45;;;12.60;99.90;;;;;;4758292;30;20036;-90
2023/10/27 07:11:49;;;;;;;8.73;7.25;;;12.70;99.90;;;;;;4747234;30;20032;-91
2023/10/27 07:14:15;;;;;;;10.13;7.47;;;12.60;99.90;;;;;;4748404;30;20095;-90
2023/10/27 07:16:43;;;;;;;8.77;7.70;;;12.60;99.90;;;;;;4737715;30;20044;-90
2023/10/27 07:19:09;;;;;;;7.50;6.65;;;12.60;99.90;;;;;;4736875;30;20160;-91
2023/10/27 07:21:37;;;;;;;8.40;7.15;;;12.60;99.90;;;;;;4737457;30;20057;-90
2023/10/27 07:24:03;;;;;;;8.00;7.07;;;12.60;99.90;;;;;;4736930;30;20278;-92
2023/10/27 07:26:29;;;;;;;9.20;7.35;;;12.60;99.90;;;;;;4750913;30;20541;-91
2023/10/27 07:28:55;;;;;;;8.35;7.40;;;12.60;99.90;;;;;;4739200;30;20133;-91
2023/10/27 07:31:20;;;;;;;8.57;7.18;;;12.60;99.90;;;;;;4760547;30;20040;-90
2023/10/27 07:33:46;;;;;;;8.90;7.07;;;12.60;99.90;;;;;;4754761;30;20029;-90
2023/10/27 07:36:12;;;;;;;7.68;6.68;;;12.60;99.90;;;;;;4754934;30;20044;-88
2023/10/27 07:38:38;;;;;;;8.57;6.88;;;12.50;99.90;;;;;;4737855;30;20033;-91
2023/10/27 07:41:03;;;;;;;9.38;8.25;;;12.60;99.90;;;;;;4736993;30;20071;-89
2023/10/27 07:43:30;;;;;;;9.40;8.35;;;12.60;99.90;;;;;;4743576;30;20397;-89
2023/10/27 07:45:56;;;;;;;8.88;7.68;;;12.60;99.90;;;;;;4772202;30;20039;-91
2023/10/27 07:48:22;;;;;;;8.95;8.05;;;12.60;99.90;;;;;;4744456;30;20051;-89
2023/10/27 07:50:48;;;;;;;8.93;7.53;;;12.50;99.90;;;;;;4742003;30;20032;-90
2023/10/27 07:53:14;;;;;;;7.97;7.00;;;12.60;99.90;;;;;;4754797;30;20478;-90
2023/10/27 07:55:40;;;;;;;8.55;7.43;;;12.60;99.90;;;;;;4754530;30;20039;-91
2023/10/27 07:58:05;;;;;;;8.50;7.60;;;12.60;99.90;;;;;;4739332;30;20045;-89
2023/10/27 08:00:34;;;;;;;8.10;7.30;;;12.60;99.90;;;;;;4743392;30;20484;-90
2023/10/27 08:03:00;;;;;;;9.00;8.02;;;12.60;99.90;;;;;;4757460;30;20032;-91
2023/10/27 08:05:25;;;;;;;10.00;8.70;;;12.60;99.90;;;;;;4772048;30;20400;-91
2023/10/27 08:07:51;;;;;;;10.85;9.40;;;12.60;99.90;;;;;;4751847;30;20516;-92
2023/10/27 08:10:19;;;;;;;9.45;8.18;;;12.60;99.90;;;;;;4745904;30;20115;-90
2023/10/27 08:12:45;;;;;;;10.90;8.90;;;12.60;99.90;;;;;;4752971;30;20032;-90
2023/10/27 08:15:10;;;;;;;9.85;8.85;;;12.60;99.90;;;;;;4753885;30;20086;-89
2023/10/27 08:17:36;;;;;;;8.50;7.60;;;12.60;99.90;;;;;;4755197;30;20481;-92
2023/10/27 08:20:03;;;;;;;9.48;8.13;;;12.60;99.90;;;;;;4756499;30;20032;-89
2023/10/27 08:22:30;;;;;;;9.65;8.40;;;12.70;99.90;;;;;;4734025;30;20029;-91
2023/10/27 08:24:58;;;;;;;8.52;7.63;;;12.70;99.90;;;;;;4768789;30;20042;-90
2023/10/27 08:27:24;;;;;;;8.88;7.75;;;12.70;99.90;;;;;;4757916;30;20037;-89
2023/10/27 08:29:54;;;;;;;9.88;8.30;;;12.80;99.90;;;;;;4777135;29;20083;-90
2023/10/27 08:32:21;;;;;;;10.05;8.40;;;12.80;99.90;;;;;;4794772;29;20028;-91
2023/10/27 08:34:47;;;;;;;9.73;8.55;;;12.80;99.90;;;;;;4763955;30;20044;-90
2023/10/27 08:37:13;;;;;;;10.07;8.50;;;12.80;99.90;;;;;;4767043;30;20047;-89
2023/10/27 08:39:39;;;;;;;10.65;8.60;;;12.80;99.90;;;;;;4754442;30;20443;-89
2023/10/27 08:42:07;;;;;;;9.60;8.40;;;12.80;99.90;;;;;;4755788;30;20028;-91
2023/10/27 08:44:34;;;;;;;10.27;8.10;;;12.80;99.90;;;;;;4756305;30;20075;-89
2023/10/27 08:47:00;;;;;;;8.45;7.43;;;12.80;99.90;;;;;;4772278;30;20036;-89
2023/10/27 08:49:26;;;;;;;9.48;8.18;;;12.80;99.90;;;;;;4749187;30;20129;-90
2023/10/27 08:51:52;;;;;;;9.60;8.60;;;12.80;99.90;;;;;;4756781;30;20028;-90
2023/10/27 08:54:17;;;;;;;9.60;8.55;;;12.80;99.90;;;;;;4752916;30;20036;-89
2023/10/27 08:56:45;;;;;;;9.82;8.77;;;12.80;99.90;;;;;;4738411;30;20477;-90
2023/10/27 08:59:11;;;;;;;9.18;8.23;;;12.90;99.90;;;;;;4738437;30;20427;-91
2023/10/27 09:01:37;;;;;;;9.40;8.50;;;12.80;99.90;;;;;;4752926;30;20059;-91
2023/10/27 09:04:07;;;;;;;8.85;7.95;;;12.90;99.90;;;;;;4767529;30;20092;-90
2023/10/27 09:06:34;;;;;;;9.52;8.52;;;12.90;99.90;;;;;;4764667;30;20031;-90
2023/10/27 09:09:00;;;;;;;9.95;8.80;;;12.90;99.90;;;;;;4745588;30;20056;-89
2023/10/27 09:11:26;;;;;;;8.82;7.88;;;12.80;99.90;;;;;;4735021;30;20033;-90
2023/10/27 09:13:51;;;;;;;9.25;8.10;;;12.90;99.90;;;;;;4735196;30;20518;-90
2023/10/27 09:16:27;;;;;;;9.65;8.65;;;12.90;99.90;;;;;;4737943;30;20043;-91
2023/10/27 09:18:55;;;;;;;8.57;7.70;;;12.90;99.90;;;;;;4738449;30;20032;-91
2023/10/27 09:21:35;;;;;;;8.75;7.78;;;12.80;99.90;;;;;;4738237;30;20032;-91
2023/10/27 09:24:01;;;;;;;7.82;7.03;;;12.80;99.90;;;;;;4757486;30;20032;-93
2023/10/27 09:26:29;;;;;;;8.35;6.93;;;12.90;99.90;;;;;;4722132;30;20389;-90
2023/10/27 09:29:03;;;;;;;8.10;7.30;;;12.90;99.90;;;;;;4720740;30;20031;-91
2023/10/27 09:31:33;;;;;;;8.32;7.53;;;12.90;99.90;;;;;;4752706;30;20085;-90
2023/10/27 09:34:24;;;;;;;7.38;6.68;;;12.90;99.90;;;;;;4754023;30;20036;-90
2023/10/27 09:36:56;;;;;;;8.07;7.27;;;12.90;99.90;;;;;;4738118;30;20051;-90
2023/10/27 09:39:23;;;;;;;7.97;7.18;;;13.00;99.90;;;;;;4753772;30;20295;-90
2023/10/27 09:42:04;;;;;;;8.18;7.38;;;13.00;99.90;;;;;;4735119;30;20032;-92
2023/10/27 09:44:39;;;;;;;7.95;7.18;;;13.00;99.90;;;;;;4752995;30;20036;-90
2023/10/27 09:47:37;;;;;;;7.95;7.15;;;13.00;99.90;;;;;;4754043;30;20044;-89
2023/10/27 09:50:08;;;;;;;7.22;6.53;;;13.00;99.90;;;;;;4753201;30;20071;-89
2023/10/27 09:52:34;;;;;;;8.05;7.28;;;13.00;99.90;;;;;;4726701;30;20035;-90
2023/10/27 09:55:05;;;;;;;7.35;6.63;;;13.00;99.90;;;;;;4735488;30;20040;-90
2023/10/27 09:57:32;;;;;;;7.80;6.95;;;13.00;99.90;;;;;;4729376;30;20082;-90
2023/10/27 10:00:00;;;;;;;7.35;6.60;;;13.10;99.90;;;;;;4753562;30;20039;-90
2023/10/27 10:02:29;;;;;;;8.35;6.80;;;13.10;99.90;;;;;;4749411;30;20017;-89
2023/10/27 10:05:00;;;;;;;8.20;7.38;;;13.10;99.90;;;;;;4745990;30;20055;-90
2023/10/27 10:07:38;;;;;;;7.93;7.13;;;13.10;99.90;;;;;;4775229;30;20036;-89
2023/10/27 10:10:29;;;;;;;7.90;7.13;;;13.20;99.90;;;;;;4777978;29;20032;-90
2023/10/27 10:13:09;;;;;;;7.50;6.80;;;13.10;99.90;;;;;;4767097;30;20024;-90
2023/10/27 10:15:37;;;;;;;7.07;6.38;;;13.10;99.90;;;;;;4753285;30;20048;-91
2023/10/27 10:18:05;;;;;;;7.78;7.03;;;13.20;99.90;;;;;;4753703;30;20032;-90
2023/10/27 10:20:47;;;;;;;7.72;6.93;;;13.20;99.90;;;;;;4752779;30;20048;-90
2023/10/27 10:23:14;;;;;;;8.38;7.57;;;13.20;99.90;;;;;;4753363;30;20481;-91
2023/10/27 10:25:53;;;;;;;7.40;6.70;;;13.20;99.90;;;;;;4755029;30;20040;-92
2023/10/27 10:31:32;;;;;;;7.45;6.75;;;13.30;99.90;;;;;;4730925;30;20079;-91
2023/10/27 10:34:10;;;;;;;6.90;6.10;;;13.20;99.90;;;;;;4753525;30;20029;-91
2023/10/27 10:36:36;;;;;;;6.25;5.65;;;13.20;99.90;;;;;;4752471;30;20047;-92
2023/10/27 10:39:04;;;;;;;6.30;5.70;;;13.30;99.90;;;;;;4755121;30;20029;-91
2023/10/27 10:41:49;;;;;;;6.53;5.75;;;13.30;99.90;;;;;;4755492;30;20104;-91
2023/10/27 10:44:16;;;;;;;6.43;5.25;;;13.30;99.90;;;;;;4753571;30;20039;-90
2023/10/27 10:46:44;;;;;;;6.80;6.20;;;13.40;99.90;;;;;;4750710;30;20051;-90
2023/10/27 10:49:28;;;;;;;6.40;5.80;;;13.40;99.90;;;;;;4752600;30;20071;-91
2023/10/27 10:51:56;;;;;;;6.38;5.65;;;13.40;99.90;;;;;;4739061;30;20032;-90
2023/10/27 10:54:32;;;;;;;5.72;5.22;;;13.40;99.90;;;;;;4731148;30;20097;-89
2023/10/27 10:57:03;;;;;;;6.35;5.05;;;13.50;99.90;;;;;;4739427;30;20028;-92
2023/10/27 10:59:29;;;;;;;4.95;4.40;;;13.40;99.90;;;;;;4745433;30;20033;-91
2023/10/27 11:01:56;;;;;;;4.53;4.13;;;13.50;99.90;;;;;;4764207;30;20036;-92
2023/10/27 11:04:33;;;;;;;6.05;4.47;;;13.50;99.90;;;;;;4747537;30;20052;-89
2023/10/27 11:07:03;;;;;;;4.78;4.35;;;13.50;99.90;;;;;;4767136;30;20030;-90
2023/10/27 11:09:31;;;;;;;4.38;3.97;;;13.50;99.90;;;;;;4743404;30;20079;-89
2023/10/27 11:11:57;;;;;;;3.38;3.08;;;13.60;99.90;;;;;;4761530;30;20036;-90
2023/10/27 11:14:23;;;;;;;4.32;3.60;;;13.60;99.90;;;;;;4754112;30;20577;-89
2023/10/27 11:16:57;;;;;;;3.67;3.33;;;13.70;99.90;;;;;;4748062;30;20036;-92
2023/10/27 11:19:23;;;;;;;3.33;3.03;;;13.60;99.90;;;;;;4767638;30;20046;-90
2023/10/27 11:21:54;;;;;;;3.80;3.50;;;13.70;99.90;;;;;;4758069;30;20036;-89
2023/10/27 11:24:20;;;;;;;3.55;3.15;;;13.60;99.90;;;;;;4765804;30;20257;-89
2023/10/27 11:26:46;;;;;;;3.85;3.45;;;13.70;99.90;;;;;;4755923;30;20544;-90
2023/10/27 11:29:12;;;;;;;3.80;3.35;;;13.70;99.90;;;;;;4749451;30;20032;-88
2023/10/27 11:31:41;;;;;;;3.83;3.53;;;13.70;99.90;;;;;;4757134;30;20055;-89
2023/10/27 11:34:11;;;;;;;3.28;2.97;;;13.70;99.90;;;;;;4750211;30;20048;-90
2023/10/27 11:36:59;;;;;;;3.60;3.30;;;13.70;99.90;;;;;;4762056;30;20032;-91
2023/10/27 11:39:25;;;;;;;3.30;3.00;;;13.70;99.90;;;;;;4752046;30;20031;-91
2023/10/27 11:42:00;;;;;;;3.53;3.10;;;13.70;99.90;;;;;;4747246;30;20012;-90
2023/10/27 11:44:27;;;;;;;3.38;3.08;;;13.70;99.90;;;;;;4783040;30;20028;-90
2023/10/27 11:46:56;;;;;;;2.95;2.75;;;13.80;99.90;;;;;;4758593;30;20037;-90
2023/10/27 11:49:25;;;;;;;5.90;2.75;;;13.80;99.90;;;;;;4772543;30;20040;-92
2023/10/27 11:51:54;;;;;;;3.25;2.95;;;13.80;99.90;;;;;;4741606;30;20032;-91
2023/10/27 11:54:20;;;;;;;2.47;2.28;;;13.80;99.90;;;;;;4738779;30;20039;-92
2023/10/27 11:56:47;;;;;;;3.00;2.75;;;13.80;99.90;;;;;;4739353;30;20478;-91
2023/10/27 11:59:14;;;;;;;3.08;2.78;;;13.80;99.90;;;;;;4754809;30;20068;-89
2023/10/27 12:01:40;;;;;;;2.42;2.15;;;13.80;99.90;;;;;;4754088;30;20038;-90
2023/10/27 12:04:12;;;;;;;3.55;2.88;;;13.80;99.90;;;;;;4739916;30;20530;-90
2023/10/27 12:06:41;;;;;;;2.83;2.63;;;13.80;99.90;;;;;;4753866;30;20505;-91
2023/10/27 12:09:07;;;;;;;2.95;2.65;;;13.80;99.90;;;;;;4753283;30;20039;-91
2023/10/27 12:11:34;;;;;;;4.03;2.75;;;13.90;99.90;;;;;;4764769;30;20070;-91
2023/10/27 12:14:00;;;;;;;3.08;2.65;;;13.90;99.90;;;;;;4754466;30;20036;-89
2023/10/27 12:16:27;;;;;;;4.35;2.70;;;13.90;99.90;;;;;;4724063;30;20093;-91
2023/10/27 12:18:55;;;;;;;2.70;2.42;;;13.90;99.90;;;;;;4754967;30;20133;-91
2023/10/27 12:21:25;;;;;;;3.97;2.70;;;14.00;99.90;;;;;;4747059;30;20114;-90
2023/10/27 12:23:51;;;;;;;3.05;2.80;;;14.00;99.90;;;;;;4756253;30;20477;-92
2023/10/27 12:26:16;;;;;;;3.20;2.45;;;14.00;99.90;;;;;;4751848;30;20039;-91
2023/10/27 12:28:42;;;;;;;3.10;2.80;;;14.00;99.90;;;;;;4756569;30;20031;-90
2023/10/27 12:31:08;;;;;;;2.80;2.60;;;14.00;99.90;;;;;;4742841;30;20063;-91
2023/10/27 12:33:36;;;;;;;3.08;2.47;;;14.00;99.90;;;;;;4768512;30;20038;-88
2023/10/27 12:36:06;;;;;;;2.60;2.40;;;14.00;99.90;;;;;;4742618;30;20032;-90
2023/10/27 12:38:39;;;;;;;2.38;2.17;;;14.00;99.90;;;;;;4754760;30;20037;-91
2023/10/27 12:41:05;;;;;;;3.03;2.40;;;14.00;99.90;;;;;;4768432;30;20070;-90
2023/10/27 12:43:31;;;;;;;2.60;2.40;;;14.00;99.90;;;;;;4755080;30;20044;-90
2023/10/27 12:45:57;;;;;;;4.22;2.30;;;14.00;99.90;;;;;;4754050;30;20044;-90
2023/10/27 12:48:22;;;;;;;2.65;2.45;;;14.00;99.90;;;;;;4743220;30;20083;-90
2023/10/27 12:50:52;;;;;;;2.95;2.65;;;14.00;99.90;;;;;;4743225;30;20059;-90
2023/10/27 12:53:18;;;;;;;2.70;2.50;;;14.00;99.90;;;;;;4754459;30;20064;-90
2023/10/27 12:55:43;;;;;;;3.10;2.80;;;14.10;99.90;;;;;;4738396;30;20028;-91
2023/10/27 12:58:12;;;;;;;3.28;2.85;;;14.10;99.90;;;;;;4753353;30;20035;-89
2023/10/27 13:00:39;;;;;;;3.20;2.85;;;14.10;99.90;;;;;;4738550;30;20056;-88
2023/10/27 13:03:05;;;;;;;3.25;2.78;;;14.10;99.90;;;;;;4754371;30;20351;-90
2023/10/27 13:05:30;;;;;;;2.83;2.63;;;14.10;99.90;;;;;;4738592;30;20048;-90
2023/10/27 13:07:59;;;;;;;2.75;2.53;;;14.10;99.90;;;;;;4759027;30;20031;-90
2023/10/27 13:10:25;;;;;;;3.88;2.60;;;14.10;99.90;;;;;;4748469;30;20024;-89
2023/10/27 13:12:58;;;;;;;3.08;2.60;;;14.10;99.90;;;;;;4753587;30;20039;-91
2023/10/27 13:15:23;;;;;;;3.15;2.83;;;14.00;99.90;;;;;;4763249;30;20040;-90
2023/10/27 13:17:52;;;;;;;3.75;2.67;;;14.00;99.90;;;;;;4726077;30;20029;-90
2023/10/27 13:20:18;;;;;;;3.00;2.70;;;14.00;99.90;;;;;;4739172;30;20132;-90
2023/10/27 13:22:47;;;;;;;3.05;2.75;;;14.00;99.90;;;;;;4744722;30;20079;-89
2023/10/27 13:25:13;;;;;;;3.00;2.70;;;14.00;99.90;;;;;;4773614;30;20028;-89
2023/10/27 13:27:42;;;;;;;2.63;2.33;;;14.00;99.90;;;;;;4761553;30;20032;-91
2023/10/27 13:30:08;;;;;;;2.95;2.67;;;14.00;99.90;;;;;;4777387;30;20028;-89